sensor_id;sensor_type;location;lat;lon;timestamp;temperature;humidity
29255;DHT22;16277;48.890;2.306;2023-06-10T00:08:29;27.50;68.90
29255;DHT22;16277;48.890;2.306;2023-06-10T00:23:34;27.40;68.90
29255;DHT22;16277;48.890;2.306;2023-06-10T00:38:41;27.20;68.80
29255;DHT22;16277;48.890;2.306;2023-06-10T00:53:45;27.20;68.90
29255;DHT22;16277;48.890;2.306;2023-06-10T01:08:55;27.00;70.40
29255;DHT22;16277;48.890;2.306;2023-06-10T01:24:04;26.90;72.40
29255;DHT22;16277;48.890;2.306;2023-06-10T01:39:12;26.70;74.00
29255;DHT22;16277;48.890;2.306;2023-06-10T01:54:17;26.70;74.90
29255;DHT22;16277;48.890;2.306;2023-06-10T02:09:22;26.60;75.60
29255;DHT22;16277;48.890;2.306;2023-06-10T02:24:27;26.50;76.00
29255;DHT22;16277;48.890;2.306;2023-06-10T02:39:32;26.40;76.40
29255;DHT22;16277;48.890;2.306;2023-06-10T02:54:39;26.30;77.20
29255;DHT22;16277;48.890;2.306;2023-06-10T03:09:45;26.20;77.90
29255;DHT22;16277;48.890;2.306;2023-06-10T03:24:51;26.10;78.50
29255;DHT22;16277;48.890;2.306;2023-06-10T03:39:56;25.90;79.10
29255;DHT22;16277;48.890;2.306;2023-06-10T03:55:03;25.80;79.50
29255;DHT22;16277;48.890;2.306;2023-06-10T04:10:09;25.80;79.70
29255;DHT22;16277;48.890;2.306;2023-06-10T04:25:14;25.80;79.80
29255;DHT22;16277;48.890;2.306;2023-06-10T04:40:19;25.60;79.40
29255;DHT22;16277;48.890;2.306;2023-06-10T04:55:24;25.50;79.50
29255;DHT22;16277;48.890;2.306;2023-06-10T05:10:29;25.50;80.20
29255;DHT22;16277;48.890;2.306;2023-06-10T05:25:36;25.50;80.80
29255;DHT22;16277;48.890;2.306;2023-06-10T05:40:40;25.50;80.80
29255;DHT22;16277;48.890;2.306;2023-06-10T05:55:45;25.40;81.50
29255;DHT22;16277;48.890;2.306;2023-06-10T06:10:50;25.50;81.90
29255;DHT22;16277;48.890;2.306;2023-06-10T06:25:55;25.40;81.90
29255;DHT22;16277;48.890;2.306;2023-06-10T06:40:59;25.40;82.40
29255;DHT22;16277;48.890;2.306;2023-06-10T06:56:06;25.50;83.00
29255;DHT22;16277;48.890;2.306;2023-06-10T07:11:10;25.50;84.00
29255;DHT22;16277;48.890;2.306;2023-06-10T07:26:15;25.60;84.80
29255;DHT22;16277;48.890;2.306;2023-06-10T07:41:20;25.60;85.70
29255;DHT22;16277;48.890;2.306;2023-06-10T07:56:24;25.70;86.10
29255;DHT22;16277;48.890;2.306;2023-06-10T08:11:29;25.80;86.40
29255;DHT22;16277;48.890;2.306;2023-06-10T08:26:34;25.80;86.70
29255;DHT22;16277;48.890;2.306;2023-06-10T08:41:42;25.90;86.60
29255;DHT22;16277;48.890;2.306;2023-06-10T08:56:49;26.00;86.10
29255;DHT22;16277;48.890;2.306;2023-06-10T09:11:54;26.00;85.30
29255;DHT22;16277;48.890;2.306;2023-06-10T09:27:07;26.10;85.60
29255;DHT22;16277;48.890;2.306;2023-06-10T09:42:19;26.30;84.30
29255;DHT22;16277;48.890;2.306;2023-06-10T09:57:23;26.40;83.30
29255;DHT22;16277;48.890;2.306;2023-06-10T10:12:28;26.60;83.20
29255;DHT22;16277;48.890;2.306;2023-06-10T10:27:36;26.70;80.90
29255;DHT22;16277;48.890;2.306;2023-06-10T10:42:44;27.10;77.00
29255;DHT22;16277;48.890;2.306;2023-06-10T10:57:56;27.10;76.50
29255;DHT22;16277;48.890;2.306;2023-06-10T11:13:05;27.30;76.20
29255;DHT22;16277;48.890;2.306;2023-06-10T11:28:19;27.40;75.00
29255;DHT22;16277;48.890;2.306;2023-06-10T11:43:23;27.60;76.90
29255;DHT22;16277;48.890;2.306;2023-06-10T11:58:29;27.80;74.50
29255;DHT22;16277;48.890;2.306;2023-06-10T12:13:33;27.90;73.90
29255;DHT22;16277;48.890;2.306;2023-06-10T12:28:38;28.00;72.00
29255;DHT22;16277;48.890;2.306;2023-06-10T12:43:46;28.30;71.90
29255;DHT22;16277;48.890;2.306;2023-06-10T12:58:51;28.50;71.40
29255;DHT22;16277;48.890;2.306;2023-06-10T13:13:56;28.80;72.40
29255;DHT22;16277;48.890;2.306;2023-06-10T13:29:00;28.90;71.50
29255;DHT22;16277;48.890;2.306;2023-06-10T13:44:05;29.10;70.30
29255;DHT22;16277;48.890;2.306;2023-06-10T13:59:09;30.80;66.60
29255;DHT22;16277;48.890;2.306;2023-06-10T14:14:14;31.40;64.60
29255;DHT22;16277;48.890;2.306;2023-06-10T14:29:19;30.90;66.10
29255;DHT22;16277;48.890;2.306;2023-06-10T14:44:24;33.00;61.10
29255;DHT22;16277;48.890;2.306;2023-06-10T14:59:28;31.90;61.70
29255;DHT22;16277;48.890;2.306;2023-06-10T15:14:32;35.90;54.80
29255;DHT22;16277;48.890;2.306;2023-06-10T15:29:37;35.40;55.00
29255;DHT22;16277;48.890;2.306;2023-06-10T15:44:41;32.90;59.60
29255;DHT22;16277;48.890;2.306;2023-06-10T15:59:46;31.80;61.50
29255;DHT22;16277;48.890;2.306;2023-06-10T16:14:50;32.90;58.00
29255;DHT22;16277;48.890;2.306;2023-06-10T16:29:55;31.80;61.10
29255;DHT22;16277;48.890;2.306;2023-06-10T16:44:59;30.80;65.10
29255;DHT22;16277;48.890;2.306;2023-06-10T17:00:06;30.30;62.70
29255;DHT22;16277;48.890;2.306;2023-06-10T17:15:11;30.00;60.50
29255;DHT22;16277;48.890;2.306;2023-06-10T17:30:15;29.50;66.50
29255;DHT22;16277;48.890;2.306;2023-06-10T17:45:20;29.10;72.20
29255;DHT22;16277;48.890;2.306;2023-06-10T18:00:25;28.70;74.40
29255;DHT22;16277;48.890;2.306;2023-06-10T18:15:29;28.30;76.70
29255;DHT22;16277;48.890;2.306;2023-06-10T18:30:37;28.00;72.20
29255;DHT22;16277;48.890;2.306;2023-06-10T18:45:42;28.00;71.10
29255;DHT22;16277;48.890;2.306;2023-06-10T19:00:46;27.60;72.70
29255;DHT22;16277;48.890;2.306;2023-06-10T19:15:51;27.10;73.10
29255;DHT22;16277;48.890;2.306;2023-06-10T19:30:55;27.20;74.20
29255;DHT22;16277;48.890;2.306;2023-06-10T19:46:00;27.30;73.80
29255;DHT22;16277;48.890;2.306;2023-06-10T20:01:04;26.80;79.40
29255;DHT22;16277;48.890;2.306;2023-06-10T20:16:09;26.90;81.30
29255;DHT22;16277;48.890;2.306;2023-06-10T20:31:14;26.50;84.40
29255;DHT22;16277;48.890;2.306;2023-06-10T20:46:18;27.00;84.00
29255;DHT22;16277;48.890;2.306;2023-06-10T21:01:23;26.50;85.00
29255;DHT22;16277;48.890;2.306;2023-06-10T21:16:29;26.30;86.00
29255;DHT22;16277;48.890;2.306;2023-06-10T21:31:34;25.90;87.50
29255;DHT22;16277;48.890;2.306;2023-06-10T21:46:38;26.30;86.10
29255;DHT22;16277;48.890;2.306;2023-06-10T22:01:43;26.30;86.40
29255;DHT22;16277;48.890;2.306;2023-06-10T22:16:47;26.30;85.70
29255;DHT22;16277;48.890;2.306;2023-06-10T22:31:53;26.30;86.30
29255;DHT22;16277;48.890;2.306;2023-06-10T22:46:58;25.70;89.90
29255;DHT22;16277;48.890;2.306;2023-06-10T23:02:02;26.10;88.10
29255;DHT22;16277;48.890;2.306;2023-06-10T23:17:07;25.80;90.00
29255;DHT22;16277;48.890;2.306;2023-06-10T23:32:13;25.90;89.10
29255;DHT22;16277;48.890;2.306;2023-06-10T23:47:18;26.20;88.70
